Date,TemperatureHighF,TemperatureAvgF,TemperatureLowF,DewpointHighF,DewpointAvgF,DewpointLowF,HumidityHigh,HumidityAvg,HumidityLow,PressureMaxIn,PressureMinIn,WindSpeedMaxMPH,WindSpeedAvgMPH,GustSpeedMaxMPH,PrecipitationSumIn
2013-2-1,40.0,32.1,22.0,30.8,11.8,1.8,80,44,26,30.41,29.86,34,7,34,0.00
2013-2-2,41.0,30.8,18.0,38.0,14.5,6.4,96,53,30,30.43,30.02,18,3,19,0.03
2013-2-3,48.0,39.1,33.0,37.0,28.3,21.2,96,68,39,30.02,29.81,25,6,26,0.01
2013-2-4,49.0,38.3,30.0,27.8,23.0,17.8,91,55,36,30.15,29.97,12,3,13,0.00
2013-2-5,59.0,45.1,36.0,39.9,32.4,27.5,96,63,39,29.98,29.82,19,3,22,0.00
2013-2-6,60.0,45.4,31.0,38.6,28.2,22.0,96,58,24,30.24,29.98,15,3,16,0.00
2013-2-7,43.0,38.1,35.0,39.1,34.0,24.7,96,87,51,30.33,30.03,21,6,21,0.70
2013-2-8,56.0,42.7,35.0,50.9,36.0,25.9,97,80,39,30.07,29.78,24,7,24,0.22
2013-2-9,54.0,41.0,31.0,31.7,21.9,15.6,95,50,23,30.36,30.06,16,4,22,0.00
2013-2-10,55.0,40.3,26.0,41.9,25.3,19.3,96,61,27,30.47,30.16,13,1,13,0.13
2013-2-11,56.0,48.9,42.0,55.2,48.1,40.9,97,97,96,30.16,29.89,16,4,17,0.09
2013-2-12,58.0,50.1,44.0,51.2,32.5,24.0,97,54,28,30.07,29.88,17,4,18,0.00
2013-2-13,48.0,43.5,39.0,45.2,42.2,36.8,97,95,65,29.92,29.63,18,3,22,0.22
2013-2-14,53.0,41.3,29.0,38.4,32.5,26.5,96,74,42,30.06,29.85,12,3,13,0.41
2013-2-15,61.0,46.6,32.0,44.2,33.8,27.5,97,67,28,30.09,29.85,20,3,20,0.00
2013-2-16,42.0,34.9,29.0,36.5,29.8,13.6,95,83,50,29.98,29.85,20,4,20,0.03
2013-2-17,38.0,29.0,22.0,23.5,10.1,3.2,94,47,28,30.30,29.97,26,7,32,0.00
2013-2-18,55.0,36.4,18.0,28.0,20.4,13.4,93,58,27,30.41,30.19,15,3,16,0.00
2013-2-19,47.0,39.5,34.0,45.2,34.4,22.4,97,83,47,30.21,29.83,19,5,19,0.17
2013-2-20,53.0,40.7,30.0,34.7,15.3,5.7,95,40,15,30.13,29.95,22,5,22,0.01
2013-2-21,59.0,41.1,24.0,23.7,16.6,11.6,94,41,18,30.24,30.03,13,2,13,0.00
2013-2-22,43.0,34.3,32.0,36.2,32.1,21.4,96,93,43,30.32,30.13,10,2,10,0.34
2013-2-23,43.0,37.8,34.0,41.9,36.6,32.7,96,96,95,30.14,29.81,13,1,14,0.16
2013-2-24,61.0,48.8,40.0,48.2,33.6,22.1,97,63,26,30.02,29.79,22,5,22,0.01
2013-2-25,43.0,37.3,32.0,26.3,23.6,21.4,74,58,47,30.22,30.02,12,4,17,0.00
2013-2-26,40.0,35.3,31.0,39.0,32.4,23.7,96,90,62,30.13,29.59,17,7,23,1.05
2013-2-27,57.0,46.3,38.0,46.6,38.1,33.5,97,76,48,29.77,29.64,20,5,20,0.82
2013-2-28,47.0,41.8,34.0,42.8,29.4,23.5,96,63,43,29.87,29.68,23,7,25,0.00